createdAt,value
2018-09-06T00:02:11.383Z,97585.13
2018-09-06T00:04:40.703Z,97582.46
2018-09-06T00:07:10.019Z,97578.28
2018-09-06T00:09:39.319Z,97584.74
2018-09-06T00:12:08.612Z,97579.39
2018-09-06T00:14:37.910Z,97575.64
2018-09-06T00:17:07.239Z,97577.11
2018-09-06T00:19:36.659Z,97577.50
2018-09-06T00:22:05.958Z,97573.22
2018-09-06T00:24:35.232Z,97575.14
2018-09-06T00:27:04.568Z,97572.47
2018-09-06T00:29:33.889Z,97571.78
2018-09-06T00:32:03.305Z,97575.22
2018-09-06T00:34:32.593Z,97575.17
2018-09-06T00:37:01.966Z,97581.22
2018-09-06T00:39:31.343Z,97577.56
2018-09-06T00:42:00.702Z,97571.88
2018-09-06T00:44:30.075Z,97575.20
2018-09-06T00:46:59.582Z,97574.73
2018-09-06T00:49:28.922Z,97572.06
2018-09-06T00:51:58.338Z,97575.89
2018-09-06T00:54:27.710Z,97565.13
2018-09-06T00:56:57.109Z,97566.95
2018-09-06T00:59:26.411Z,97571.92
2018-09-06T01:01:56.543Z,97572.80
2018-09-06T01:04:25.995Z,97576.57
2018-09-06T01:06:55.325Z,97574.59
2018-09-06T01:09:24.686Z,97569.34
2018-09-06T01:11:54.015Z,97563.75
2018-09-06T01:14:23.377Z,97561.72
2018-09-06T01:16:52.730Z,97561.02
2018-09-06T01:19:22.134Z,97563.98
2018-09-06T01:21:51.537Z,97561.67
2018-09-06T01:24:21.089Z,97556.72
2018-09-06T01:26:50.426Z,97562.20
2018-09-06T01:29:19.855Z,97552.33
2018-09-06T01:31:49.233Z,97553.08
2018-09-06T01:34:18.958Z,97552.33
2018-09-06T01:36:48.512Z,97539.59
2018-09-06T01:39:18.900Z,97548.46
2018-09-06T01:41:48.242Z,97546.63
2018-09-06T01:44:17.593Z,97542.40
2018-09-06T01:46:47.002Z,97537.90
2018-09-06T01:49:16.333Z,97541.17
2018-09-06T01:51:45.788Z,97536.53
2018-09-06T01:54:15.208Z,97527.61
2018-09-06T01:56:44.549Z,97537.23
2018-09-06T01:59:14.858Z,97532.70
2018-09-06T02:01:44.272Z,97522.32
2018-09-06T02:04:13.608Z,97522.50
2018-09-06T02:06:43.007Z,97527.02
2018-09-06T02:09:12.422Z,97525.26
2018-09-06T02:11:42.269Z,97527.28
2018-09-06T02:14:11.631Z,97521.41
2018-09-06T02:16:40.941Z,97527.69
2018-09-06T02:19:10.289Z,97522.41
2018-09-06T02:21:39.674Z,97523.21
2018-09-06T02:24:09.002Z,97516.04
2018-09-06T02:26:38.449Z,97513.61
2018-09-06T02:29:07.844Z,97511.04
2018-09-06T02:31:37.248Z,97507.92
2018-09-06T02:34:07.146Z,97513.06
2018-09-06T02:36:36.568Z,97515.53
2018-09-06T02:39:08.747Z,97517.74
2018-09-06T02:41:38.110Z,97515.64
2018-09-06T02:44:08.001Z,97513.44
2018-09-06T02:46:37.359Z,97505.33
2018-09-06T02:49:06.669Z,97502.20
2018-09-06T02:51:36.057Z,97497.66
2018-09-06T02:54:05.435Z,97498.47
2018-09-06T02:56:34.846Z,97495.89
2018-09-06T02:59:04.228Z,97498.11
2018-09-06T03:01:33.585Z,97497.84
2018-09-06T03:04:03.205Z,97497.41
2018-09-06T03:06:32.556Z,97500.68
2018-09-06T03:09:01.941Z,97507.34
2018-09-06T03:11:36.524Z,97500.85
2018-09-06T03:14:05.981Z,97498.64
2018-09-06T03:16:35.941Z,97501.37
2018-09-06T03:19:05.409Z,97503.04
2018-09-06T03:21:34.819Z,97496.59
2018-09-06T03:24:04.138Z,97493.86
2018-09-06T03:26:33.443Z,97491.39
2018-09-06T03:29:02.852Z,97492.52
2018-09-06T03:31:32.168Z,97492.25
2018-09-06T03:34:01.442Z,97488.49
2018-09-06T03:36:31.580Z,97484.20
2018-09-06T03:39:00.944Z,97475.07
2018-09-06T03:41:30.908Z,97476.19
2018-09-06T03:44:00.262Z,97478.12
2018-09-06T03:46:29.862Z,97475.05
2018-09-06T03:48:59.206Z,97471.48
2018-09-06T03:51:28.529Z,97474.30
2018-09-06T03:53:57.913Z,97471.19
2018-09-06T03:56:27.253Z,97463.66
2018-09-06T03:58:56.590Z,97466.56
2018-09-06T04:01:25.908Z,97462.80
2018-09-06T04:03:55.280Z,97472.48
2018-09-06T04:06:24.627Z,97471.72
2018-09-06T04:08:53.965Z,97470.64
2018-09-06T04:11:23.261Z,97473.45
2018-09-06T04:13:52.630Z,97475.33
2018-09-06T04:16:21.990Z,97472.09
2018-09-06T04:18:51.373Z,97471.53
2018-09-06T04:21:20.769Z,97469.68
2018-09-06T04:23:50.137Z,97466.61
2018-09-06T04:26:19.561Z,97469.08
2018-09-06T04:28:48.935Z,97466.20
2018-09-06T04:31:18.307Z,97464.09
2018-09-06T04:33:47.650Z,97464.25
2018-09-06T04:36:17.079Z,97468.56
2018-09-06T04:38:46.444Z,97465.55
2018-09-06T04:41:15.822Z,97464.35
2018-09-06T04:43:45.199Z,97464.08
2018-09-06T04:46:14.752Z,97459.59
2018-09-06T04:48:44.134Z,97459.97
2018-09-06T04:51:13.584Z,97458.08
2018-09-06T04:53:42.932Z,97461.63
2018-09-06T04:56:12.349Z,97457.17
2018-09-06T04:58:41.746Z,97465.02
2018-09-06T05:01:11.064Z,97460.56
2018-09-06T05:03:40.367Z,97463.84
2018-09-06T05:06:09.843Z,97463.91
2018-09-06T05:08:39.418Z,97467.44
2018-09-06T05:11:08.848Z,97468.14
2018-09-06T05:13:38.775Z,97463.53
2018-09-06T05:16:08.187Z,97467.22
2018-09-06T05:18:37.790Z,97468.78
2018-09-06T05:21:07.077Z,97469.80
2018-09-06T05:23:36.459Z,97457.34
2018-09-06T05:26:06.221Z,97455.41
2018-09-06T05:28:35.626Z,97457.02
2018-09-06T05:31:05.023Z,97452.66
2018-09-06T05:33:34.704Z,97452.55
2018-09-06T05:36:04.255Z,97456.55
2018-09-06T05:38:33.638Z,97469.98
2018-09-06T05:41:03.017Z,97460.38
2018-09-06T05:43:32.416Z,97460.56
2018-09-06T05:46:01.942Z,97458.88
2018-09-06T05:48:31.419Z,97465.75
2018-09-06T05:51:00.893Z,97465.75
2018-09-06T05:53:30.318Z,97465.38
2018-09-06T05:55:59.773Z,97464.55
2018-09-06T05:58:29.204Z,97459.91
2018-09-06T06:00:58.775Z,97461.45
2018-09-06T06:03:28.383Z,97458.44
2018-09-06T06:05:57.751Z,97458.92
2018-09-06T06:08:38.547Z,97450.03
2018-09-06T06:11:08.394Z,97458.10
2018-09-06T06:13:37.938Z,97452.47
2018-09-06T06:16:07.590Z,97453.27
2018-09-06T06:18:37.157Z,97450.06
2018-09-06T06:21:06.597Z,97456.09
2018-09-06T06:23:36.238Z,97455.02
2018-09-06T06:26:05.804Z,97453.19
2018-09-06T06:28:35.202Z,97456.31
2018-09-06T06:31:04.688Z,97452.33
2018-09-06T06:33:34.178Z,97449.58
2018-09-06T06:36:03.800Z,97448.44
2018-09-06T06:38:33.321Z,97446.58
2018-09-06T06:41:02.950Z,97446.94
2018-09-06T06:43:32.518Z,97446.20
2018-09-06T06:46:01.975Z,97444.84
2018-09-06T06:48:31.452Z,97445.56
2018-09-06T06:51:01.071Z,97447.79
2018-09-06T06:53:30.616Z,97445.33
2018-09-06T06:56:00.144Z,97448.49
2018-09-06T06:58:29.628Z,97453.64
2018-09-06T07:00:59.222Z,97448.72
2018-09-06T07:03:28.790Z,97454.41
2018-09-06T07:05:58.290Z,97456.98
2018-09-06T07:08:27.742Z,97455.32
2018-09-06T07:10:58.174Z,97458.60
2018-09-06T07:13:27.667Z,97450.56
2018-09-06T07:15:57.139Z,97449.93
2018-09-06T07:18:26.812Z,97451.50
2018-09-06T07:20:56.274Z,97455.41
2018-09-06T07:23:25.762Z,97455.09
2018-09-06T07:25:55.544Z,97455.16
2018-09-06T07:28:25.196Z,97459.22
2018-09-06T07:30:54.726Z,97452.30
2018-09-06T07:33:24.202Z,97449.81
2018-09-06T07:35:53.669Z,97454.17
2018-09-06T07:38:23.287Z,97450.75
2018-09-06T07:40:52.669Z,97444.86
2018-09-06T07:43:22.150Z,97457.89
2018-09-06T07:45:51.968Z,97457.75
2018-09-06T07:48:21.402Z,97454.14
2018-09-06T07:50:51.315Z,97443.17
2018-09-06T07:53:24.311Z,97448.73
2018-09-06T07:55:54.355Z,97451.49
2018-09-06T07:58:23.940Z,97443.12
2018-09-06T08:00:53.753Z,97443.75
2018-09-06T08:03:23.587Z,97444.21
2018-09-06T08:05:53.348Z,97442.44
2018-09-06T08:08:22.788Z,97434.87
2018-09-06T08:10:52.586Z,97438.73
2018-09-06T08:13:22.033Z,97437.81
2018-09-06T08:15:51.517Z,97433.27
2018-09-06T08:18:20.940Z,97433.98
2018-09-06T08:20:50.424Z,97431.97
2018-09-06T08:23:19.920Z,97427.42
2018-09-06T08:25:49.328Z,97427.09
2018-09-06T08:28:18.792Z,97420.98
2018-09-06T08:30:48.417Z,97423.25
2018-09-06T08:33:17.767Z,97421.89
2018-09-06T08:35:47.651Z,97425.42
2018-09-06T08:38:17.049Z,97425.05
2018-09-06T08:40:46.477Z,97422.00
2018-09-06T08:43:15.985Z,97425.58
2018-09-06T08:45:46.531Z,97423.33
2018-09-06T08:48:16.159Z,97417.74
2018-09-06T08:50:45.692Z,97417.97
2018-09-06T08:53:15.169Z,97423.66
2018-09-06T08:55:44.741Z,97424.94
2018-09-06T08:58:14.397Z,97430.36
2018-09-06T09:00:49.253Z,97422.67
2018-09-06T09:03:19.156Z,97414.79
2018-09-06T09:05:48.944Z,97421.98
2018-09-06T09:08:18.420Z,97417.17
2018-09-06T09:10:47.986Z,97413.56
2018-09-06T09:13:18.396Z,97405.27
2018-09-06T09:15:47.978Z,97405.57
2018-09-06T09:18:17.611Z,97400.29
2018-09-06T09:20:47.246Z,97390.41
2018-09-06T09:23:16.744Z,97393.16
2018-09-06T09:25:46.375Z,97395.20
2018-09-06T09:28:15.873Z,97388.82
2018-09-06T09:30:45.705Z,97394.81
2018-09-06T09:33:14.943Z,97386.27
2018-09-06T09:35:44.873Z,97386.78
2018-09-06T09:38:14.312Z,97386.30
2018-09-06T09:40:43.709Z,97382.92
2018-09-06T09:43:13.169Z,97380.28
2018-09-06T09:45:42.907Z,97375.47
2018-09-06T09:48:12.575Z,97373.01
2018-09-06T09:53:10.382Z,97361.60
2018-09-06T09:55:39.888Z,97364.09
2018-09-06T09:58:09.455Z,97358.23
2018-09-06T10:00:40.720Z,97351.77
2018-09-06T10:03:15.056Z,97351.06
2018-09-06T10:05:46.371Z,97347.56
2018-09-06T10:08:20.993Z,97343.38
2018-09-06T10:10:50.476Z,97343.22
2018-09-06T10:13:19.906Z,97346.38
2018-09-06T10:15:50.265Z,97343.02
2018-09-06T10:18:19.817Z,97336.63
2018-09-06T10:20:49.081Z,97340.22
2018-09-06T10:23:18.644Z,97330.30
2018-09-06T10:25:47.984Z,97326.13
2018-09-06T10:28:17.440Z,97327.40
2018-09-06T10:30:46.850Z,97324.20
2018-09-06T10:33:16.409Z,97321.00
2018-09-06T10:35:45.965Z,97325.98
2018-09-06T10:38:15.608Z,97322.38
2018-09-06T10:40:45.232Z,97322.45
2018-09-06T10:43:15.056Z,97319.56
2018-09-06T10:45:44.598Z,97320.25
2018-09-06T10:48:14.159Z,97322.09
2018-09-06T10:50:43.612Z,97326.00
2018-09-06T10:53:12.941Z,97335.97
2018-09-06T10:55:42.509Z,97350.34
2018-09-06T10:58:12.915Z,97368.62
2018-09-06T11:00:42.338Z,97361.45
2018-09-06T11:03:12.206Z,97382.66
2018-09-06T11:05:42.117Z,97391.34
2018-09-06T11:08:12.160Z,97401.87
2018-09-06T11:10:41.844Z,97418.16
2018-09-06T11:13:11.728Z,97419.36
2018-09-06T11:15:41.332Z,97407.98
2018-09-06T11:18:11.088Z,97382.09
2018-09-06T11:20:41.428Z,97368.11
2018-09-06T11:23:11.103Z,97359.92
2018-09-06T11:25:40.609Z,97358.73
2018-09-06T11:28:10.339Z,97357.91
2018-09-06T11:30:40.757Z,97346.16
2018-09-06T11:33:10.414Z,97346.16
2018-09-06T11:35:40.102Z,97348.14
2018-09-06T11:38:09.751Z,97350.26
2018-09-06T11:40:39.360Z,97340.97
2018-09-06T11:43:08.971Z,97351.25
2018-09-06T11:45:38.558Z,97349.95
2018-09-06T11:48:08.117Z,97348.75
2018-09-06T11:50:37.677Z,97348.09
2018-09-06T11:53:07.220Z,97354.67
2018-09-06T11:55:36.773Z,97346.50
2018-09-06T11:58:06.236Z,97351.70
2018-09-06T12:00:38.434Z,97345.36
2018-09-06T12:03:08.332Z,97344.41
2018-09-06T12:05:37.932Z,97340.89
2018-09-06T12:08:07.656Z,97333.56
2018-09-06T12:10:37.958Z,97334.01
2018-09-06T12:13:07.396Z,97337.80
2018-09-06T12:15:37.133Z,97329.26
2018-09-06T12:18:06.790Z,97341.41
2018-09-06T12:20:36.319Z,97327.30
2018-09-06T12:23:06.185Z,97322.50
2018-09-06T12:25:35.699Z,97320.27
2018-09-06T12:28:05.410Z,97320.73
2018-09-06T12:30:34.969Z,97315.31
2018-09-06T12:33:04.387Z,97316.48
2018-09-06T12:35:33.940Z,97310.12
2018-09-06T12:38:03.787Z,97304.77
2018-09-06T12:40:33.442Z,97304.80
2018-09-06T12:43:02.960Z,97305.06
2018-09-06T12:45:32.577Z,97304.95
2018-09-06T12:48:02.118Z,97296.06
2018-09-06T12:50:31.800Z,97294.37
2018-09-06T12:53:01.907Z,97290.11
2018-09-06T12:55:31.590Z,97288.96
2018-09-06T12:58:01.215Z,97280.06
2018-09-06T13:00:30.754Z,97272.01
2018-09-06T13:03:00.479Z,97275.52
2018-09-06T13:05:30.102Z,97271.59
2018-09-06T13:07:59.868Z,97266.27
2018-09-06T13:10:29.929Z,97258.98
2018-09-06T13:12:59.371Z,97255.64
2018-09-06T13:15:28.948Z,97251.25
2018-09-06T13:17:58.569Z,97248.24
2018-09-06T13:20:28.238Z,97247.78
2018-09-06T13:22:57.868Z,97246.31
2018-09-06T13:25:28.035Z,97242.98
2018-09-06T13:27:57.579Z,97247.00
2018-09-06T13:30:27.275Z,97248.28
2018-09-06T13:32:57.790Z,97247.45
2018-09-06T13:35:27.379Z,97247.22
2018-09-06T13:37:56.968Z,97245.34
2018-09-06T13:40:27.759Z,97237.44
2018-09-06T13:42:57.288Z,97239.12
2018-09-06T13:45:26.762Z,97235.03
2018-09-06T13:47:56.266Z,97231.22
2018-09-06T13:50:25.817Z,97231.55
2018-09-06T13:52:55.271Z,97234.08
2018-09-06T13:55:24.991Z,97228.91
2018-09-06T13:57:54.844Z,97227.05
2018-09-06T14:00:24.454Z,97225.44
2018-09-06T14:02:53.930Z,97227.11
2018-09-06T14:05:24.249Z,97233.97
2018-09-06T14:07:53.686Z,97230.70
2018-09-06T14:10:23.402Z,97224.02
2018-09-06T14:12:52.851Z,97220.78
2018-09-06T14:15:22.619Z,97224.41
2018-09-06T14:17:52.235Z,97213.17
2018-09-06T14:20:21.734Z,97208.72
2018-09-06T14:22:51.442Z,97204.72
2018-09-06T14:25:21.516Z,97193.23
2018-09-06T14:27:51.057Z,97193.24
2018-09-06T14:30:20.759Z,97188.87
2018-09-06T14:32:51.829Z,97174.89
2018-09-06T14:35:21.410Z,97172.17
2018-09-06T14:37:51.852Z,97171.49
2018-09-06T14:40:21.507Z,97163.78
2018-09-06T14:42:52.042Z,97169.45
2018-09-06T14:45:21.580Z,97178.98
2018-09-06T14:47:51.116Z,97183.33
2018-09-06T14:50:20.924Z,97185.08
2018-09-06T14:52:50.929Z,97187.44
2018-09-06T14:55:21.350Z,97181.84
2018-09-06T14:57:51.653Z,97176.61
2018-09-06T15:00:21.234Z,97177.22
2018-09-06T15:02:51.392Z,97181.25
2018-09-06T15:05:31.706Z,97190.31
2018-09-06T15:08:01.762Z,97180.93
2018-09-06T15:10:32.051Z,97172.92
2018-09-06T15:13:04.164Z,97174.39
2018-09-06T15:15:46.749Z,97181.98
2018-09-06T15:18:16.759Z,97177.01
2018-09-06T15:20:46.465Z,97180.28
2018-09-06T15:23:16.312Z,97174.34
2018-09-06T15:25:46.178Z,97172.16
2018-09-06T15:28:17.509Z,97169.06
2018-09-06T15:30:50.967Z,97175.44
2018-09-06T15:33:21.030Z,97178.23
2018-09-06T15:35:51.211Z,97193.42
2018-09-06T15:38:21.003Z,97201.77
2018-09-06T15:40:51.759Z,97218.84
2018-09-06T15:43:21.186Z,97225.78
2018-09-06T15:45:50.731Z,97231.96
2018-09-06T15:48:20.301Z,97250.91
2018-09-06T15:50:49.775Z,97255.09
2018-09-06T15:53:19.257Z,97259.88
2018-09-06T15:55:48.823Z,97254.23
2018-09-06T15:58:18.436Z,97264.05
2018-09-06T16:00:47.932Z,97261.52
2018-09-06T16:03:17.840Z,97266.81
2018-09-06T16:05:47.475Z,97268.67
2018-09-06T16:08:18.145Z,97270.08
2018-09-06T16:10:48.023Z,97260.80
2018-09-06T16:13:18.703Z,97277.22
2018-09-06T16:15:51.169Z,97283.65
2018-09-06T16:18:21.262Z,97276.91
2018-09-06T16:20:51.972Z,97263.59
2018-09-06T16:23:28.244Z,97254.72
2018-09-06T16:25:58.037Z,97249.80
2018-09-06T16:28:27.891Z,97246.06
2018-09-06T16:30:58.912Z,97245.98
2018-09-06T16:33:28.539Z,97246.71
2018-09-06T16:35:58.340Z,97240.17
2018-09-06T16:38:28.279Z,97241.59
2018-09-06T16:40:58.233Z,97234.53
2018-09-06T16:43:27.824Z,97239.80
2018-09-06T16:45:57.939Z,97245.80
2018-09-06T16:48:27.683Z,97246.35
2018-09-06T16:50:57.594Z,97245.91
2018-09-06T16:53:27.608Z,97252.19
2018-09-06T16:55:57.420Z,97262.32
2018-09-06T16:58:27.376Z,97270.84
2018-09-06T17:00:57.467Z,97279.97
2018-09-06T17:03:27.653Z,97281.50
2018-09-06T17:05:57.936Z,97287.94
2018-09-06T17:08:28.000Z,97280.48
2018-09-06T17:10:57.809Z,97291.72
2018-09-06T17:13:27.528Z,97297.35
2018-09-06T17:15:57.543Z,97299.11
2018-09-06T17:18:27.455Z,97301.45
2018-09-06T17:20:59.336Z,97303.69
2018-09-06T17:23:29.223Z,97306.02
2018-09-06T17:25:59.146Z,97315.34
2018-09-06T17:28:29.966Z,97312.84
2018-09-06T17:30:59.752Z,97317.92
2018-09-06T17:33:29.906Z,97328.58
2018-09-06T17:35:59.820Z,97324.89
2018-09-06T17:38:29.965Z,97321.14
2018-09-06T17:41:00.021Z,97317.63
2018-09-06T17:43:30.192Z,97266.71
2018-09-06T17:46:01.243Z,97321.34
2018-09-06T17:48:31.025Z,97304.02
2018-09-06T17:51:01.020Z,97304.05
2018-09-06T17:53:30.951Z,97307.08
2018-09-06T17:56:00.587Z,97311.22
2018-09-06T17:58:30.293Z,97316.25
2018-09-06T18:01:37.231Z,97316.94
2018-09-06T18:04:07.985Z,97322.11
2018-09-06T18:06:38.425Z,97331.44
2018-09-06T18:09:12.425Z,97329.44
2018-09-06T18:11:42.978Z,97325.75
2018-09-06T18:14:12.999Z,97329.70
2018-09-06T18:16:43.356Z,97337.22
2018-09-06T18:19:12.854Z,97341.13
2018-09-06T18:21:44.632Z,97336.16
2018-09-06T18:24:16.356Z,97342.30
2018-09-06T18:26:48.512Z,97344.53
2018-09-06T18:29:18.814Z,97347.51
2018-09-06T18:31:49.682Z,97343.53
2018-09-06T18:34:19.735Z,97349.70
2018-09-06T18:36:53.941Z,97348.05
2018-09-06T18:39:31.997Z,97354.75
2018-09-06T18:42:04.777Z,97352.56
2018-09-06T18:44:36.991Z,97357.85
2018-09-06T18:47:07.144Z,97354.65
2018-09-06T18:49:38.453Z,97358.53
2018-09-06T18:52:08.381Z,97361.91
2018-09-06T18:54:38.915Z,97366.45
2018-09-06T18:57:08.993Z,97362.38
2018-09-06T18:59:39.591Z,97373.04
2018-09-06T19:02:09.868Z,97381.96
2018-09-06T19:04:53.905Z,97378.39
2018-09-06T19:07:24.281Z,97379.97
2018-09-06T19:10:04.580Z,97381.31
2018-09-06T19:12:34.964Z,97393.32
2018-09-06T19:15:05.452Z,97392.73
2018-09-06T19:17:35.344Z,97394.05
2018-09-06T19:20:05.853Z,97399.11
2018-09-06T19:22:35.777Z,97406.97
2018-09-06T19:25:07.621Z,97402.66
2018-09-06T19:27:55.882Z,97401.80
2018-09-06T19:30:29.428Z,97401.23
2018-09-06T19:33:00.408Z,97401.97
2018-09-06T19:35:30.673Z,97404.06
2018-09-06T19:38:01.994Z,97406.95
2018-09-06T19:40:34.115Z,97402.83
2018-09-06T19:43:06.818Z,97400.55
2018-09-06T19:45:36.847Z,97399.42
2018-09-06T19:48:07.080Z,97399.97
2018-09-06T19:50:38.025Z,97405.81
2018-09-06T19:53:08.969Z,97398.31
2018-09-06T19:57:56.212Z,97394.28
2018-09-06T20:00:26.690Z,97391.96
2018-09-06T20:02:58.488Z,97386.58
2018-09-06T20:05:28.516Z,97385.19
2018-09-06T20:07:59.018Z,97388.13
2018-09-06T20:10:29.046Z,97392.14
2018-09-06T20:12:59.439Z,97380.61
2018-09-06T20:15:29.407Z,97391.59
2018-09-06T20:18:04.335Z,97389.45
2018-09-06T20:20:35.027Z,97390.02
2018-09-06T20:23:06.285Z,97386.22
2018-09-06T20:25:36.365Z,97394.51
2018-09-06T20:28:06.603Z,97398.00
2018-09-06T20:30:37.690Z,97397.20
2018-09-06T20:33:09.335Z,97395.39
2018-09-06T20:35:39.047Z,97398.08
2018-09-06T20:38:09.429Z,97392.81
2018-09-06T20:40:39.332Z,97398.22
2018-09-06T20:43:08.958Z,97388.35
2018-09-06T20:45:38.593Z,97386.80
2018-09-06T20:48:09.996Z,97386.00
2018-09-06T20:50:39.531Z,97389.21
2018-09-06T20:53:09.074Z,97392.78
2018-09-06T20:55:38.640Z,97393.32
2018-09-06T20:58:08.236Z,97396.34
2018-09-06T21:00:37.722Z,97394.20
2018-09-06T21:03:07.245Z,97392.94
2018-09-06T21:05:36.660Z,97390.85
2018-09-06T21:08:06.145Z,97390.91
2018-09-06T21:10:35.753Z,97392.25
2018-09-06T21:13:05.235Z,97392.73
2018-09-06T21:15:34.780Z,97397.08
2018-09-06T21:18:04.309Z,97393.92
2018-09-06T21:20:33.765Z,97392.92
2018-09-06T21:23:03.442Z,97388.09
2018-09-06T21:25:33.054Z,97385.40
2018-09-06T21:28:02.611Z,97383.53
2018-09-06T21:30:32.203Z,97389.25
2018-09-06T21:33:01.631Z,97382.30
2018-09-06T21:35:31.137Z,97378.76
2018-09-06T21:38:01.258Z,97372.37
2018-09-06T21:40:30.764Z,97376.95
2018-09-06T21:43:00.713Z,97382.36
2018-09-06T21:45:30.224Z,97379.69
2018-09-06T21:48:00.572Z,97379.43
2018-09-06T21:50:30.131Z,97379.52
2018-09-06T21:52:59.875Z,97385.44
2018-09-06T21:55:29.312Z,97392.20
2018-09-06T21:57:58.760Z,97396.98
2018-09-06T22:00:28.242Z,97394.37
2018-09-06T22:03:02.758Z,97401.60
2018-09-06T22:05:32.150Z,97403.11
2018-09-06T22:08:02.643Z,97406.55
2018-09-06T22:10:32.029Z,97406.86
2018-09-06T22:13:02.376Z,97402.28
2018-09-06T22:15:31.761Z,97409.00
2018-09-06T22:18:01.654Z,97407.94
2018-09-06T22:20:30.979Z,97402.73
2018-09-06T22:23:00.262Z,97402.52
2018-09-06T22:25:29.691Z,97402.19
2018-09-06T22:27:59.000Z,97402.19
2018-09-06T22:30:28.372Z,97408.78
2018-09-06T22:32:57.646Z,97400.77
2018-09-06T22:35:27.036Z,97401.39
2018-09-06T22:37:56.334Z,97401.98
2018-09-06T22:40:25.631Z,97405.21
2018-09-06T22:42:54.933Z,97404.66
2018-09-06T22:45:24.339Z,97406.31
2018-09-06T22:47:53.643Z,97402.80
2018-09-06T22:50:22.993Z,97401.44
2018-09-06T22:52:52.334Z,97400.80
2018-09-06T22:55:21.633Z,97409.06
2018-09-06T22:57:50.976Z,97402.40
2018-09-06T23:00:20.976Z,97402.47
2018-09-06T23:02:55.481Z,97393.13
2018-09-06T23:05:24.805Z,97395.50
2018-09-06T23:07:54.106Z,97397.43
2018-09-06T23:10:23.444Z,97401.17
2018-09-06T23:12:52.764Z,97392.63
2018-09-06T23:15:22.186Z,97390.28
2018-09-06T23:17:51.545Z,97395.55
2018-09-06T23:20:20.905Z,97391.85
2018-09-06T23:22:50.192Z,97392.73
2018-09-06T23:25:19.501Z,97395.21
2018-09-06T23:27:48.862Z,97403.91
2018-09-06T23:30:18.130Z,97403.12
2018-09-06T23:32:47.493Z,97406.44
2018-09-06T23:35:16.822Z,97410.22
2018-09-06T23:37:46.109Z,97405.70
2018-09-06T23:40:15.378Z,97404.94
2018-09-06T23:42:44.718Z,97411.88
2018-09-06T23:45:14.014Z,97414.12
2018-09-06T23:47:43.499Z,97410.15
2018-09-06T23:50:12.798Z,97408.66
2018-09-06T23:52:42.122Z,97414.11
2018-09-06T23:55:12.397Z,97415.19
2018-09-06T23:57:41.763Z,97419.00
